METAR / TAF

Die METAR- und TAF-Liste ist aus technischen Gründen (Verfügbarkeit, Update-Zyklen) nicht für ein Meteo-Briefing gedacht. Benutzen Sie stattdessen skybriefing der Skyguide  oder das TAMSI (MeteoSchweiz-eigene Meteo Selfbriefing-Plattform für Firmen aus der Aviatik; Anfragen über das

Kontaktformular

METAR Schweiz

METAR     LSZH 200350Z VRB02KT 9999 MIFG NSC 13/12 Q1016 NOSIG=
METAR     LSZH 200420Z VRB01KT 9999 MIFG NSC 13/12 Q1016 NOSIG=
METAR     LSGG 200350Z VRB01KT CAVOK 16/12 Q1016 NOSIG=
METAR     LSGG 200420Z 29002KT CAVOK 16/12 Q1016 NOSIG=
METAR     LFSB 200400Z 21003KT CAVOK 14/12 Q1015 NOSIG=
METAR     LSZB 200350Z 12003KT CAVOK 12/12 Q1016 NOSIG=
METAR     LSZB 200420Z 14003KT CAVOK 13/12 Q1016 NOSIG=
METAR     LSZA 200350Z AUTO VRB01KT 9999 FEW050 BKN080 19/18 Q1018=
METAR     LSZA 200420Z 04001KT 9999 SCT048 BKN080 19/17 Q1018 NOSIG=
METAR     LSZG 200350Z AUTO 00000KT 9999 NSC 13/13 Q1016=
METAR     LSZG 200420Z AUTO 20001KT 9000 NCD 13/13 Q1016=
METAR     LSZR 200350Z AUTO 12001KT CAVOK 16/15 Q1015=
METAR     LSZR 200420Z AUTO 26001KT CAVOK 16/15 Q1016=
METAR     LSGS 200350Z AUTO 08005KT CAVOK 17/12 Q1018=
METAR     LSGS 200420Z AUTO 08006KT CAVOK 18/12 Q1018=
METAR     LSGC 200350Z AUTO 00000KT CAVOK 13/10 Q1018=
METAR     LSGC 200420Z AUTO 00000KT CAVOK 13/09 Q1018=
METAR     LSZC 200350Z AUTO 25004KT CAVOK 17/13 Q1016=
METAR     LSZC 200420Z AUTO VRB03KT CAVOK 16/13 Q1016=
METAR RRA LSZL 200350Z AUTO VRB01KT 9999NDV FEW045 SCT093 18/18
               Q1018 RMK=
METAR     LSZL 200420Z NIL=
METAR     LSZS 200350Z AUTO 20001KT 9000 SCT032 07/07 Q1025=
METAR     LSZS 200420Z AUTO VRB01KT 5000 FEW024 07/07 Q1025=
METAR RRA LSMA 200420Z AUTO VRB02KT 9999NDV NCD 15/13 Q1016 RMK=
METAR     LSMA 200350Z AUTO VRB02KT 9999NDV NCD 15/13 Q1016 RMK=
METAR RRA LSMD 200350Z AUTO 12002KT 9999NDV NCD 15/13 Q1016 RMK=
METAR     LSMD 200420Z NIL=
METAR RRA LSME 200420Z AUTO 00000KT 9999NDV NCD 15/13 Q1016 RMK=
METAR     LSME 200350Z AUTO 26001KT 9999NDV NCD 15/13 Q1016 RMK=
METAR     LSMM 200350Z NIL=
METAR     LSMM 200420Z NIL=
METAR     LSMP 200350Z VRB01KT CAVOK 15/12 Q1016 RMK BLU=
METAR     LSMP 200420Z 22002KT CAVOK 14/12 Q1016 RMK BLU=
Aktualisiert am Samstag, 20. Juli 2019, 06:42 Uhr

TAF Schweiz

TAF     LSZH 200225Z 2003/2109 VRB03KT CAVOK TX31/2015Z TN14/2004Z
             TN17/2104Z TEMPO 2012/2018 27008KT BECMG 2019/2022
             9999 SCT060 BKN080 PROB40 TEMPO 2022/2109 SHRA
             SCT060TCU=
TAF     LSGG 200225Z 2003/2109 VRB03KT CAVOK TX32/2015Z TN16/2004Z
             TN19/2104Z BECMG 2009/2011 22012KT 9999 FEW060 SCT100
             PROB30 TEMPO 2020/2103 SHRA SCT060TCU BECMG 2103/2106
             VRB03KT=
TAF     LFSB 192300Z 2000/2024 VRB03KT CAVOK BECMG 2003/2006
             14005KT BECMG 2010/2012 26010KT FEW085TCU TEMPO
             2015/2024 -SHRA PROB40 TEMPO 2016/2021 23015G25KT
             -TSRA SCT070CB PROB30 TEMPO 2018/2020 VRB20G35KT 4000
             TSRA=
TAF     LSGS 200225Z 2003/2012 VRB03KT CAVOK BECMG 2008/2010 9999
             FEW100=
TAF     LSZA 200225Z 2003/2012 VRB03KT CAVOK BECMG 2003/2005 9999
             BKN055 BECMG 2009/2012 SCT060=
TAF     LSZB 200225Z 2003/2012 VRB03KT CAVOK=
TAF     LSZR 200225Z 2003/2012 VRB03KT CAVOK=
TAF RRA LSMA 191625Z 1917/2023 06007KT 9999 FEW080 BECMG 1917/1919
             CAVOK BECMG 2006/2009 9999 SCT100 PROB30 TEMPO
             2012/2018 27015G25KT TSRA SCT080CB PROB40 TEMPO
             2018/2023 25015G25KT TSRA SCT070CB=
TAF     LSMD 191625Z 1917/2023 25006KT 9999 FEW060 BECMG 1917/1919
             CAVOK BECMG 2009/2012 9999 SCT100 PROB40 TEMPO
             2018/2023 22015G25KT TSRA SCT080CB=
TAF     LSME 191625Z 1917/2023 25006KT 9999 FEW060 BECMG 1917/1919
             CAVOK BECMG 2009/2012 9999 SCT100 PROB30 TEMPO
             2012/2018 25015G25KT PROB40 TEMPO 2018/2023
             25015G25KT TSRA SCT080CB=
TAF RRA LSMM 191625Z 1917/2023 27008KT 9999 FEW080 BECMG 1917/1919
             CAVOK BECMG 2006/2009 9999 SCT100 PROB30 TEMPO
             2012/2018 28015G25KT TSRA SCT080CB PROB40 TEMPO
             2018/2023 28015G25KT TSRA SCT070CB=
TAF     LSMP 191625Z 1917/2023 VRB03KT CAVOK BECMG 2008/2010
             22010KT 9999 FEW080 SCT100=
Aktualisiert am Samstag, 20. Juli 2019, 06:03 Uhr